Time;durP1;ratioP1;P1;durP2;ratioP2;P2;SDS_P1;SDS_P2;PMS_P1;PMS_P2;Temp;Humidity;BMP_temperature;BMP_pressure;BME280_temperature;BME280_humidity;BME280_pressure;Samples;Min_cycle;Max_cycle;Signal;HPM_P1;HPM_P2
2023/01/04 00:01:41;;;;;;;3.30;1.10;;;;;;;;;;5095783;28;20415;-90
2023/01/04 00:04:07;;;;;;;4.50;0.50;;;;;;;;;;5104681;28;20420;-90
2023/01/04 00:06:33;;;;;;;2.97;0.43;;;;;;;;;;5098104;28;20403;-90
2023/01/04 00:08:58;;;;;;;2.20;0.80;;;;;;;;;;5095625;28;20472;-90
2023/01/04 00:11:24;;;;;;;1.90;0.50;;;;;;;;;;5095553;28;20508;-90
2023/01/04 00:13:54;;;;;;;1.30;0.20;;;;;;;;;;5095352;28;20412;-90
2023/01/04 00:16:21;;;;;;;1.00;0.57;;;;;;;;;;5095316;28;20439;-90
2023/01/04 00:18:48;;;;;;;2.47;0.70;;;;;;;;;;5078914;28;20447;-89
2023/01/04 00:21:18;;;;;;;1.63;0.50;;;;;;;;;;5095064;28;20421;-90
2023/01/04 00:23:46;;;;;;;1.73;0.77;;;;;;;;;;5094971;28;20422;-88
2023/01/04 00:26:19;;;;;;;0.80;0.40;;;;;;;;;;5095755;28;20411;-89
2023/01/04 00:28:46;;;;;;;2.03;0.97;;;;;;;;;;5095896;28;20539;-89
2023/01/04 00:31:15;;;;;;;1.23;0.40;;;;;;;;;;5095775;28;20506;-89
2023/01/04 00:33:41;;;;;;;4.30;1.13;;;;;;;;;;5096806;28;20413;-94
2023/01/04 00:36:14;;;;;;;2.37;0.83;;;;;;;;;;5097572;28;20431;-95
2023/01/04 00:38:46;;;;;;;1.50;0.50;;;;;;;;;;5098751;28;20408;-94
2023/01/04 00:41:12;;;;;;;1.60;0.57;;;;;;;;;;5102039;28;20418;-94
2023/01/04 00:43:38;;;;;;;3.50;0.20;;;;;;;;;;5100761;28;20413;-93
2023/01/04 00:46:10;;;;;;;2.30;0.50;;;;;;;;;;5095213;28;20502;-92
2023/01/04 00:48:36;;;;;;;1.30;0.30;;;;;;;;;;5099649;28;20438;-94
2023/01/04 00:51:02;;;;;;;3.27;0.47;;;;;;;;;;5100485;28;20436;-93
2023/01/04 00:53:28;;;;;;;1.10;0.30;;;;;;;;;;5103582;28;20906;-95
2023/01/04 00:55:59;;;;;;;1.27;0.30;;;;;;;;;;5098388;28;20421;-91
2023/01/04 00:58:25;;;;;;;4.40;0.53;;;;;;;;;;5095613;28;20417;-93
2023/01/04 01:00:51;;;;;;;1.33;0.50;;;;;;;;;;5100298;28;20431;-93
2023/01/04 01:03:17;;;;;;;0.80;0.30;;;;;;;;;;5095552;28;20425;-94
2023/01/04 01:05:42;;;;;;;2.40;0.40;;;;;;;;;;5094823;28;20425;-93
2023/01/04 01:08:25;;;;;;;2.20;0.60;;;;;;;;;;5094450;28;20467;-92
2023/01/04 01:10:51;;;;;;;2.13;0.60;;;;;;;;;;5095203;28;20498;-90
2023/01/04 01:13:17;;;;;;;2.10;0.30;;;;;;;;;;5095165;28;20407;-93
2023/01/04 01:15:43;;;;;;;1.40;0.60;;;;;;;;;;5096411;28;20412;-91
2023/01/04 01:18:10;;;;;;;1.20;0.27;;;;;;;;;;5094085;28;20408;-91
2023/01/04 01:20:40;;;;;;;2.83;0.33;;;;;;;;;;5094471;28;20927;-92
2023/01/04 01:23:06;;;;;;;1.27;0.30;;;;;;;;;;5094450;28;20438;-93
2023/01/04 01:25:33;;;;;;;4.27;0.33;;;;;;;;;;5094500;28;20413;-93
2023/01/04 01:27:59;;;;;;;2.63;0.43;;;;;;;;;;5094748;28;20419;-93
2023/01/04 01:30:25;;;;;;;1.40;0.20;;;;;;;;;;5094500;28;20459;-93
2023/01/04 01:32:51;;;;;;;2.07;0.57;;;;;;;;;;5099330;28;20412;-91
2023/01/04 01:35:17;;;;;;;2.83;0.70;;;;;;;;;;5104807;28;20430;-90
2023/01/04 01:37:43;;;;;;;2.80;0.57;;;;;;;;;;5096515;28;20452;-93
2023/01/04 01:40:09;;;;;;;3.20;0.40;;;;;;;;;;5095141;28;20423;-91
2023/01/04 01:42:35;;;;;;;0.80;0.30;;;;;;;;;;5096031;28;20408;-91
2023/01/04 01:45:05;;;;;;;0.57;0.30;;;;;;;;;;5094774;28;20416;-91
2023/01/04 01:47:39;;;;;;;0.80;0.30;;;;;;;;;;5094005;28;20416;-93
2023/01/04 01:50:09;;;;;;;4.33;0.40;;;;;;;;;;5093431;28;20504;-90
2023/01/04 01:52:37;;;;;;;3.40;0.57;;;;;;;;;;5093589;28;20762;-91
2023/01/04 01:55:05;;;;;;;1.77;0.50;;;;;;;;;;5094430;28;20884;-93
2023/01/04 01:57:33;;;;;;;1.53;0.87;;;;;;;;;;5093561;28;20506;-91
2023/01/04 02:00:01;;;;;;;2.20;0.20;;;;;;;;;;5094605;28;20404;-91
2023/01/04 02:02:29;;;;;;;3.70;0.23;;;;;;;;;;5093250;28;20781;-89
2023/01/04 02:04:55;;;;;;;1.77;0.50;;;;;;;;;;5093824;28;20782;-93
2023/01/04 02:07:23;;;;;;;3.50;0.80;;;;;;;;;;5092890;28;20419;-90
2023/01/04 02:09:50;;;;;;;0.97;0.20;;;;;;;;;;5093163;28;20970;-91
2023/01/04 02:12:17;;;;;;;1.87;0.20;;;;;;;;;;5094675;28;20463;-92
2023/01/04 02:14:45;;;;;;;1.90;0.47;;;;;;;;;;5093694;28;20417;-92
2023/01/04 02:17:16;;;;;;;1.90;0.30;;;;;;;;;;5094136;28;20486;-94
2023/01/04 02:19:51;;;;;;;4.70;0.60;;;;;;;;;;5096352;28;20451;-93
2023/01/04 02:22:17;;;;;;;4.00;0.83;;;;;;;;;;5073179;28;20928;-93
2023/01/04 02:24:46;;;;;;;1.17;0.37;;;;;;;;;;5078302;28;20479;-95
2023/01/04 02:27:23;;;;;;;1.80;0.40;;;;;;;;;;5075127;28;20631;-94
2023/01/04 02:29:49;;;;;;;2.43;0.37;;;;;;;;;;5074860;28;20499;-93
2023/01/04 02:32:24;;;;;;;0.80;0.50;;;;;;;;;;5076269;28;20423;-94
2023/01/04 02:35:07;;;;;;;2.17;0.50;;;;;;;;;;5075320;28;20454;-93
2023/01/04 02:37:42;;;;;;;3.93;0.80;;;;;;;;;;5075689;28;20504;-92
2023/01/04 02:40:20;;;;;;;2.87;0.63;;;;;;;;;;5077724;28;20415;-93
2023/01/04 02:45:48;;;;;;;1.00;0.30;;;;;;;;;;5079617;28;20425;-93
2023/01/04 02:51:00;;;;;;;0.60;0.20;;;;;;;;;;5078583;28;20444;-96
2023/01/04 02:53:31;;;;;;;0.80;0.30;;;;;;;;;;5076979;28;20403;-94
2023/01/04 02:56:04;;;;;;;3.87;0.50;;;;;;;;;;5078413;28;20409;-94
2023/01/04 02:58:33;;;;;;;2.23;0.90;;;;;;;;;;5079282;28;20419;-92
2023/01/04 03:07:09;;;;;;;1.07;0.37;;;;;;;;;;5074105;28;20430;-91
2023/01/04 03:09:38;;;;;;;2.63;0.50;;;;;;;;;;5072757;28;20495;-91
2023/01/04 03:14:53;;;;;;;1.83;0.60;;;;;;;;;;5078307;28;20435;-90
2023/01/04 03:17:23;;;;;;;1.20;0.20;;;;;;;;;;5076731;28;20423;-90
2023/01/04 03:19:53;;;;;;;2.73;0.40;;;;;;;;;;5077050;28;20508;-91
2023/01/04 03:36:32;;;;;;;1.50;0.30;;;;;;;;;;5077327;28;20417;-89
2023/01/04 03:48:31;;;;;;;2.50;0.20;;;;;;;;;;5077776;28;20401;-90
2023/01/04 03:51:04;;;;;;;1.10;0.30;;;;;;;;;;5076063;28;20433;-92
2023/01/04 03:53:32;;;;;;;3.13;0.30;;;;;;;;;;5076225;28;20400;-91
2023/01/04 03:56:10;;;;;;;1.43;0.57;;;;;;;;;;5081164;28;20422;-95
2023/01/04 03:58:37;;;;;;;3.53;0.50;;;;;;;;;;5079987;28;20437;-90
2023/01/04 04:01:03;;;;;;;0.67;0.20;;;;;;;;;;5076048;28;20434;-92
2023/01/04 04:08:59;;;;;;;2.00;0.27;;;;;;;;;;5076887;28;21048;-92
2023/01/04 04:11:31;;;;;;;3.70;0.47;;;;;;;;;;5075286;28;20436;-93
2023/01/04 04:13:58;;;;;;;3.33;1.03;;;;;;;;;;5075168;28;20471;-91
2023/01/04 04:16:24;;;;;;;2.17;0.53;;;;;;;;;;5075348;28;20520;-92
2023/01/04 04:18:50;;;;;;;2.17;0.30;;;;;;;;;;5075387;28;20415;-93
2023/01/04 04:21:16;;;;;;;2.67;0.43;;;;;;;;;;5075129;28;20785;-93
2023/01/04 04:23:42;;;;;;;4.33;0.30;;;;;;;;;;5074880;28;20422;-93
2023/01/04 04:26:11;;;;;;;3.03;0.30;;;;;;;;;;5075077;28;20426;-93
2023/01/04 04:28:38;;;;;;;1.13;0.30;;;;;;;;;;5076972;28;21049;-90
2023/01/04 04:31:04;;;;;;;2.03;0.60;;;;;;;;;;5090712;28;20779;-93
2023/01/04 04:33:30;;;;;;;1.33;0.30;;;;;;;;;;5074963;28;20496;-94
2023/01/04 04:35:56;;;;;;;3.50;1.17;;;;;;;;;;5075278;28;20429;-93
2023/01/04 04:38:22;;;;;;;3.17;0.50;;;;;;;;;;5076025;28;20414;-92
2023/01/04 04:43:33;;;;;;;1.43;0.33;;;;;;;;;;5076476;28;20408;-91
2023/01/04 04:45:59;;;;;;;1.70;1.60;;;;;;;;;;5075670;28;20457;-93
2023/01/04 04:48:25;;;;;;;1.77;0.27;;;;;;;;;;5075867;28;20499;-93
2023/01/04 04:50:51;;;;;;;2.80;0.50;;;;;;;;;;5074531;28;20531;-89
2023/01/04 04:53:17;;;;;;;1.43;0.60;;;;;;;;;;5074974;28;20417;-92
2023/01/04 04:55:43;;;;;;;1.07;0.70;;;;;;;;;;5074906;28;20422;-93
2023/01/04 04:58:09;;;;;;;0.57;0.20;;;;;;;;;;5074849;28;20420;-93
2023/01/04 05:00:35;;;;;;;0.97;0.20;;;;;;;;;;5075214;28;20901;-92
2023/01/04 05:03:01;;;;;;;2.30;0.47;;;;;;;;;;5074830;28;20421;-86
2023/01/04 05:05:30;;;;;;;1.20;0.50;;;;;;;;;;5074324;28;20759;-93
2023/01/04 05:07:56;;;;;;;4.03;1.40;;;;;;;;;;5074701;28;20435;-90
2023/01/04 05:10:22;;;;;;;1.20;0.40;;;;;;;;;;5075103;28;20473;-89
2023/01/04 05:13:00;;;;;;;3.73;0.70;;;;;;;;;;5074865;28;20409;-93
2023/01/04 05:15:34;;;;;;;1.43;0.33;;;;;;;;;;5074807;28;20404;-90
2023/01/04 05:18:00;;;;;;;1.20;0.50;;;;;;;;;;5074328;28;20451;-93
2023/01/04 05:20:32;;;;;;;3.43;0.70;;;;;;;;;;5075544;28;20946;-91
2023/01/04 05:22:58;;;;;;;2.40;0.60;;;;;;;;;;5074723;28;20413;-92
2023/01/04 05:25:24;;;;;;;4.23;0.83;;;;;;;;;;5074332;28;20406;-90
2023/01/04 05:27:50;;;;;;;2.50;0.80;;;;;;;;;;5074296;28;20430;-93
2023/01/04 05:33:01;;;;;;;3.93;0.90;;;;;;;;;;5075409;28;20433;-90
2023/01/04 05:35:27;;;;;;;2.30;0.87;;;;;;;;;;5073014;28;20843;-90
2023/01/04 05:37:53;;;;;;;1.53;0.43;;;;;;;;;;5073628;28;20424;-90
2023/01/04 05:40:19;;;;;;;1.37;0.30;;;;;;;;;;5073636;28;20417;-91
2023/01/04 05:42:45;;;;;;;3.70;0.50;;;;;;;;;;5073180;28;20478;-88
2023/01/04 05:45:11;;;;;;;2.13;0.67;;;;;;;;;;5073644;28;20516;-91
2023/01/04 05:47:37;;;;;;;1.70;0.20;;;;;;;;;;5073568;28;20425;-91
2023/01/04 05:50:03;;;;;;;2.20;0.47;;;;;;;;;;5073446;28;20480;-89
2023/01/04 05:52:29;;;;;;;0.50;0.20;;;;;;;;;;5073409;28;20544;-89
2023/01/04 05:54:55;;;;;;;0.80;0.40;;;;;;;;;;5073567;28;20851;-90
2023/01/04 05:57:21;;;;;;;2.30;0.70;;;;;;;;;;5077675;28;20401;-87
2023/01/04 05:59:47;;;;;;;3.40;0.70;;;;;;;;;;5078608;28;20424;-89
2023/01/04 06:02:17;;;;;;;1.33;0.60;;;;;;;;;;5073169;28;20778;-89
2023/01/04 06:04:45;;;;;;;2.97;0.50;;;;;;;;;;5072138;28;20425;-87
2023/01/04 06:07:11;;;;;;;1.27;0.30;;;;;;;;;;5073149;28;20422;-91
2023/01/04 06:09:37;;;;;;;1.90;0.70;;;;;;;;;;5072215;28;20563;-90
2023/01/04 06:12:03;;;;;;;2.00;0.47;;;;;;;;;;5072796;28;20452;-90
2023/01/04 06:14:29;;;;;;;2.03;0.20;;;;;;;;;;5073065;28;20787;-90
2023/01/04 06:16:55;;;;;;;1.67;0.40;;;;;;;;;;5072409;28;20417;-91
2023/01/04 06:19:21;;;;;;;2.53;0.27;;;;;;;;;;5072466;28;20416;-90
2023/01/04 06:21:47;;;;;;;2.87;0.30;;;;;;;;;;5072443;28;20428;-89
2023/01/04 06:24:13;;;;;;;6.93;0.60;;;;;;;;;;5072429;28;20430;-88
2023/01/04 06:26:39;;;;;;;4.00;0.40;;;;;;;;;;5072509;28;20414;-89
2023/01/04 06:29:06;;;;;;;0.77;0.40;;;;;;;;;;5072261;28;20477;-89
2023/01/04 06:31:34;;;;;;;0.60;0.20;;;;;;;;;;5072583;28;20426;-87
2023/01/04 06:34:00;;;;;;;1.70;0.53;;;;;;;;;;5072318;28;20838;-88
2023/01/04 06:36:26;;;;;;;2.47;0.30;;;;;;;;;;5072239;28;20452;-90
2023/01/04 06:38:52;;;;;;;1.03;0.30;;;;;;;;;;5072355;28;20414;-88
2023/01/04 06:41:18;;;;;;;1.47;0.57;;;;;;;;;;5072440;28;20410;-88
2023/01/04 06:43:45;;;;;;;0.47;0.20;;;;;;;;;;5072501;28;20510;-89
2023/01/04 06:46:10;;;;;;;1.10;0.30;;;;;;;;;;5073477;28;20446;-88
2023/01/04 06:48:37;;;;;;;0.87;0.30;;;;;;;;;;5076388;28;20421;-87
2023/01/04 06:51:02;;;;;;;0.67;0.20;;;;;;;;;;5076218;28;20405;-86
2023/01/04 06:53:28;;;;;;;0.40;0.20;;;;;;;;;;5077312;28;20961;-89
2023/01/04 06:55:54;;;;;;;3.03;0.50;;;;;;;;;;5077201;28;20860;-90
2023/01/04 06:58:20;;;;;;;0.73;0.20;;;;;;;;;;5076017;28;20482;-87
2023/01/04 07:00:46;;;;;;;2.80;0.30;;;;;;;;;;5075918;28;20418;-90
2023/01/04 07:03:12;;;;;;;0.87;0.20;;;;;;;;;;5075914;28;20417;-90
2023/01/04 07:05:38;;;;;;;0.80;0.20;;;;;;;;;;5075863;28;20515;-88
2023/01/04 07:08:04;;;;;;;8.13;1.03;;;;;;;;;;5075645;28;20852;-88
2023/01/04 07:10:30;;;;;;;0.60;0.20;;;;;;;;;;5076422;28;20483;-90
2023/01/04 07:12:56;;;;;;;0.50;0.20;;;;;;;;;;5076146;28;20424;-87
2023/01/04 07:15:22;;;;;;;3.03;0.40;;;;;;;;;;5075724;28;20946;-89
2023/01/04 07:17:48;;;;;;;0.40;0.20;;;;;;;;;;5075358;28;20513;-89
2023/01/04 07:20:14;;;;;;;0.83;0.20;;;;;;;;;;5075127;28;20426;-87
2023/01/04 07:23:00;;;;;;;0.93;0.30;;;;;;;;;;5095396;28;20420;-94
2023/01/04 07:25:26;;;;;;;0.70;0.30;;;;;;;;;;5106456;28;20418;-91
2023/01/04 07:27:52;;;;;;;1.40;0.20;;;;;;;;;;5104032;28;20421;-93
2023/01/04 07:30:18;;;;;;;0.50;0.20;;;;;;;;;;5096284;28;20462;-90
2023/01/04 07:32:44;;;;;;;0.73;0.30;;;;;;;;;;5096238;28;20428;-91
2023/01/04 07:35:10;;;;;;;2.73;0.63;;;;;;;;;;5095877;28;20433;-91
2023/01/04 07:37:36;;;;;;;0.70;0.30;;;;;;;;;;5098815;28;20409;-90
2023/01/04 07:40:02;;;;;;;2.33;0.97;;;;;;;;;;5097731;28;20441;-91
2023/01/04 07:42:28;;;;;;;0.50;0.30;;;;;;;;;;5097320;28;20414;-92
2023/01/04 07:44:54;;;;;;;1.60;0.77;;;;;;;;;;5096116;28;20479;-90
2023/01/04 07:47:20;;;;;;;1.10;0.20;;;;;;;;;;5095557;28;20405;-89
2023/01/04 07:49:49;;;;;;;0.50;0.20;;;;;;;;;;5096111;28;20470;-89
2023/01/04 07:52:16;;;;;;;0.50;0.20;;;;;;;;;;5095567;28;20436;-91
2023/01/04 07:54:42;;;;;;;1.27;0.30;;;;;;;;;;5095470;28;20897;-91
2023/01/04 07:57:08;;;;;;;0.80;0.20;;;;;;;;;;5096246;28;20421;-90
2023/01/04 07:59:34;;;;;;;0.50;0.30;;;;;;;;;;5095343;28;20427;-92
2023/01/04 08:02:00;;;;;;;2.90;0.67;;;;;;;;;;5078672;28;20421;-92
2023/01/04 08:04:28;;;;;;;1.90;0.40;;;;;;;;;;5094815;28;20483;-89
2023/01/04 08:06:55;;;;;;;3.33;0.70;;;;;;;;;;5096931;28;20412;-90
2023/01/04 08:09:21;;;;;;;2.40;1.03;;;;;;;;;;5078144;28;20484;-92
2023/01/04 08:11:47;;;;;;;1.63;0.47;;;;;;;;;;5096707;28;20462;-93
2023/01/04 08:14:13;;;;;;;1.90;0.80;;;;;;;;;;5096478;28;20993;-89
2023/01/04 08:16:40;;;;;;;4.43;0.50;;;;;;;;;;5095528;28;20501;-92
2023/01/04 08:19:08;;;;;;;1.53;1.10;;;;;;;;;;5094665;28;20424;-90
2023/01/04 08:21:35;;;;;;;4.10;1.20;;;;;;;;;;5095254;28;20414;-91
2023/01/04 08:24:01;;;;;;;2.00;0.90;;;;;;;;;;5095293;28;20778;-91
2023/01/04 08:26:29;;;;;;;1.83;1.10;;;;;;;;;;5095395;28;20454;-93
2023/01/04 08:28:56;;;;;;;1.97;0.70;;;;;;;;;;5095479;28;20547;-91
2023/01/04 08:31:23;;;;;;;0.97;0.53;;;;;;;;;;5095609;28;20977;-92
2023/01/04 08:33:50;;;;;;;1.60;0.90;;;;;;;;;;5095288;28;20909;-90
2023/01/04 08:36:19;;;;;;;0.93;0.50;;;;;;;;;;5095072;28;20434;-90
2023/01/04 08:38:49;;;;;;;2.63;0.73;;;;;;;;;;5096616;28;20405;-89
2023/01/04 08:41:17;;;;;;;1.87;1.13;;;;;;;;;;5094596;28;20467;-93
2023/01/04 08:43:43;;;;;;;1.97;0.87;;;;;;;;;;5096346;28;20410;-92
2023/01/04 08:46:09;;;;;;;1.80;0.97;;;;;;;;;;5095448;28;20419;-90
2023/01/04 08:48:35;;;;;;;1.87;0.93;;;;;;;;;;5094915;28;20414;-91
2023/01/04 08:51:03;;;;;;;1.70;0.70;;;;;;;;;;5094382;28;20457;-92
2023/01/04 08:53:32;;;;;;;2.40;0.60;;;;;;;;;;5095479;28;20404;-91
2023/01/04 08:55:59;;;;;;;1.70;0.83;;;;;;;;;;5099055;28;20503;-89
2023/01/04 08:58:26;;;;;;;1.73;0.87;;;;;;;;;;5094545;28;20410;-92
2023/01/04 09:00:52;;;;;;;1.20;0.63;;;;;;;;;;5094585;28;20409;-92
2023/01/04 09:03:18;;;;;;;1.53;0.30;;;;;;;;;;5094016;28;20807;-90
2023/01/04 09:05:44;;;;;;;2.27;0.63;;;;;;;;;;5093214;28;20512;-89
2023/01/04 09:08:10;;;;;;;1.20;0.67;;;;;;;;;;5093801;28;20572;-89
2023/01/04 09:10:37;;;;;;;1.10;0.50;;;;;;;;;;5093222;28;20469;-90
2023/01/04 09:13:03;;;;;;;0.90;0.57;;;;;;;;;;5094558;28;20429;-89
2023/01/04 09:15:32;;;;;;;1.57;0.60;;;;;;;;;;5095415;28;20472;-90
2023/01/04 09:17:58;;;;;;;1.90;0.50;;;;;;;;;;5094809;28;20417;-88
2023/01/04 09:20:24;;;;;;;1.63;0.30;;;;;;;;;;5093556;28;20455;-89
2023/01/04 09:22:50;;;;;;;1.27;0.60;;;;;;;;;;5093726;28;20913;-89
2023/01/04 09:25:17;;;;;;;1.20;0.70;;;;;;;;;;5093487;28;20469;-91
2023/01/04 09:27:43;;;;;;;1.13;0.60;;;;;;;;;;5093827;28;20418;-88
2023/01/04 09:30:10;;;;;;;2.03;0.40;;;;;;;;;;5093301;28;20473;-89
2023/01/04 09:32:35;;;;;;;0.90;0.70;;;;;;;;;;5093142;28;20423;-89
2023/01/04 09:35:01;;;;;;;1.40;0.97;;;;;;;;;;5093002;28;20418;-90
2023/01/04 09:37:27;;;;;;;1.63;0.70;;;;;;;;;;5093234;28;20778;-89
2023/01/04 09:39:53;;;;;;;1.60;0.87;;;;;;;;;;5092979;28;20438;-88
2023/01/04 09:42:22;;;;;;;1.57;0.80;;;;;;;;;;5092801;28;20422;-87
2023/01/04 09:45:00;;;;;;;1.67;0.50;;;;;;;;;;5093024;28;20493;-89
2023/01/04 09:47:28;;;;;;;1.63;0.57;;;;;;;;;;5092938;28;20414;-88
2023/01/04 09:49:59;;;;;;;2.30;0.77;;;;;;;;;;5093233;28;20473;-89
2023/01/04 09:52:33;;;;;;;3.50;1.27;;;;;;;;;;5092297;28;20949;-86
2023/01/04 09:55:01;;;;;;;1.80;0.80;;;;;;;;;;5092458;28;20894;-89
2023/01/04 09:57:32;;;;;;;1.63;0.70;;;;;;;;;;5092792;28;20418;-84
2023/01/04 10:00:00;;;;;;;2.97;1.20;;;;;;;;;;5092398;28;21004;-86
2023/01/04 10:02:37;;;;;;;2.00;0.80;;;;;;;;;;5092144;28;20784;-87
2023/01/04 10:05:05;;;;;;;2.60;1.53;;;;;;;;;;5092018;28;20783;-90
2023/01/04 10:07:32;;;;;;;1.80;1.20;;;;;;;;;;5073139;28;20423;-89
2023/01/04 10:09:58;;;;;;;1.80;1.10;;;;;;;;;;5090817;28;20514;-86
2023/01/04 10:12:24;;;;;;;3.27;1.10;;;;;;;;;;5092919;28;20409;-90
2023/01/04 10:14:57;;;;;;;2.60;1.40;;;;;;;;;;5092326;28;20762;-92
2023/01/04 10:17:38;;;;;;;2.37;1.27;;;;;;;;;;5092524;28;20407;-90
2023/01/04 10:20:27;;;;;;;2.20;0.67;;;;;;;;;;5093141;28;20415;-91
2023/01/04 10:23:16;;;;;;;1.87;0.80;;;;;;;;;;5086394;28;20479;-91
2023/01/04 10:25:49;;;;;;;1.87;1.00;;;;;;;;;;5092816;28;20423;-88
2023/01/04 10:28:24;;;;;;;1.13;0.70;;;;;;;;;;5092079;28;20426;-88
2023/01/04 10:31:02;;;;;;;1.60;0.43;;;;;;;;;;5092295;28;20506;-89
2023/01/04 10:33:32;;;;;;;1.70;0.70;;;;;;;;;;5092107;28;20415;-88
2023/01/04 10:35:59;;;;;;;1.50;0.90;;;;;;;;;;5092166;28;20406;-87
2023/01/04 10:38:28;;;;;;;1.67;0.73;;;;;;;;;;5094052;28;20408;-85
2023/01/04 10:40:57;;;;;;;1.63;0.80;;;;;;;;;;5091876;28;20493;-82
2023/01/04 10:43:38;;;;;;;1.37;0.50;;;;;;;;;;5091042;28;20413;-82
2023/01/04 10:46:04;;;;;;;1.20;0.60;;;;;;;;;;5091518;28;20433;-81
2023/01/04 10:48:51;;;;;;;1.57;0.60;;;;;;;;;;5091473;28;20412;-81
2023/01/04 10:51:21;;;;;;;1.20;0.53;;;;;;;;;;5091482;28;20426;-81
2023/01/04 10:53:51;;;;;;;1.60;0.90;;;;;;;;;;5091561;28;20411;-82
2023/01/04 10:56:29;;;;;;;0.83;0.50;;;;;;;;;;5091586;28;20413;-82
2023/01/04 10:59:02;;;;;;;1.07;0.50;;;;;;;;;;5091507;28;20815;-82
2023/01/04 11:01:37;;;;;;;1.70;0.53;;;;;;;;;;5091414;28;20423;-82
2023/01/04 11:04:15;;;;;;;1.80;0.67;;;;;;;;;;5091075;28;20429;-82
2023/01/04 11:06:47;;;;;;;1.07;0.60;;;;;;;;;;5091471;28;20437;-82
2023/01/04 11:09:18;;;;;;;0.93;0.53;;;;;;;;;;5091032;28;20558;-82
2023/01/04 11:11:45;;;;;;;2.10;0.57;;;;;;;;;;5091320;28;20475;-82
2023/01/04 11:14:11;;;;;;;1.87;0.77;;;;;;;;;;5091370;28;20482;-82
2023/01/04 11:16:38;;;;;;;1.03;0.50;;;;;;;;;;5091216;28;20431;-81
2023/01/04 11:19:05;;;;;;;1.37;0.30;;;;;;;;;;5090814;28;20445;-83
2023/01/04 11:21:37;;;;;;;1.50;0.40;;;;;;;;;;5091497;28;20478;-81
2023/01/04 11:24:07;;;;;;;1.33;0.50;;;;;;;;;;5092614;28;20434;-81
2023/01/04 11:26:37;;;;;;;1.13;0.30;;;;;;;;;;5091246;28;20469;-82
2023/01/04 11:29:12;;;;;;;1.60;0.70;;;;;;;;;;5091093;28;20963;-82
2023/01/04 11:31:56;;;;;;;0.90;0.20;;;;;;;;;;5091391;28;20423;-81
2023/01/04 11:34:41;;;;;;;1.90;0.50;;;;;;;;;;5095192;28;20410;-81
2023/01/04 11:37:22;;;;;;;0.87;0.47;;;;;;;;;;5094724;28;20464;-81
2023/01/04 11:39:51;;;;;;;2.33;0.33;;;;;;;;;;5094915;28;20980;-82
2023/01/04 11:42:20;;;;;;;1.03;0.30;;;;;;;;;;5095910;28;20501;-82
2023/01/04 11:44:58;;;;;;;1.10;0.27;;;;;;;;;;5095901;28;20627;-82
2023/01/04 11:47:27;;;;;;;1.60;0.40;;;;;;;;;;5095869;28;20433;-82
2023/01/04 11:49:52;;;;;;;2.40;1.07;;;;;;;;;;5095476;28;20470;-82
2023/01/04 11:52:37;;;;;;;0.90;0.37;;;;;;;;;;5094374;28;20420;-82
2023/01/04 11:55:15;;;;;;;0.90;0.50;;;;;;;;;;5095884;28;20478;-82
2023/01/04 11:57:41;;;;;;;1.07;0.40;;;;;;;;;;5094364;28;20403;-82
2023/01/04 12:00:09;;;;;;;3.13;1.10;;;;;;;;;;5095873;28;20486;-86
2023/01/04 12:02:35;;;;;;;0.90;0.23;;;;;;;;;;5094949;28;20420;-89
2023/01/04 12:05:01;;;;;;;0.80;0.40;;;;;;;;;;5094422;28;20415;-85
2023/01/04 12:07:40;;;;;;;1.00;0.37;;;;;;;;;;5096288;28;20462;-90
2023/01/04 12:10:25;;;;;;;1.03;0.20;;;;;;;;;;5095607;28;20499;-92
2023/01/04 12:12:51;;;;;;;1.40;0.30;;;;;;;;;;5100809;28;20548;-88
2023/01/04 12:15:21;;;;;;;0.90;0.30;;;;;;;;;;5099135;28;20427;-89
2023/01/04 12:17:50;;;;;;;0.77;0.40;;;;;;;;;;5096016;28;20732;-90
2023/01/04 12:20:17;;;;;;;1.23;0.50;;;;;;;;;;5093881;28;20431;-89
2023/01/04 12:22:43;;;;;;;1.70;0.40;;;;;;;;;;5096321;28;20825;-86
2023/01/04 12:25:24;;;;;;;1.20;0.30;;;;;;;;;;5099124;28;20437;-87
2023/01/04 12:27:50;;;;;;;0.80;0.30;;;;;;;;;;5097764;28;20424;-85
2023/01/04 12:30:55;;;;;;;1.00;0.50;;;;;;;;;;5100321;28;20461;-90
2023/01/04 12:33:30;;;;;;;0.70;0.20;;;;;;;;;;5034323;28;20900;-90
2023/01/04 12:36:02;;;;;;;0.40;0.20;;;;;;;;;;5038516;28;20496;-94
2023/01/04 12:38:59;;;;;;;0.50;0.20;;;;;;;;;;5067925;28;20432;-93
2023/01/04 12:42:00;;;;;;;0.50;0.20;;;;;;;;;;5082178;28;20427;-88
2023/01/04 12:44:50;;;;;;;1.10;0.40;;;;;;;;;;5101530;28;20477;-89
2023/01/04 12:50:17;;;;;;;0.73;0.20;;;;;;;;;;5092700;28;20554;-89
2023/01/04 12:52:43;;;;;;;0.40;0.20;;;;;;;;;;5079188;28;20412;-93
2023/01/04 12:55:26;;;;;;;0.67;0.40;;;;;;;;;;5075703;28;20422;-93
2023/01/04 12:57:52;;;;;;;0.50;0.20;;;;;;;;;;5077388;28;20179;-92
2023/01/04 13:00:18;;;;;;;0.60;0.20;;;;;;;;;;5086038;28;20424;-93
2023/01/04 13:02:51;;;;;;;0.50;0.20;;;;;;;;;;5089828;28;20504;-93
2023/01/04 13:05:17;;;;;;;1.17;0.30;;;;;;;;;;5075477;28;20784;-95
2023/01/04 13:07:48;;;;;;;0.30;0.20;;;;;;;;;;5086946;28;20426;-93
2023/01/04 13:10:20;;;;;;;1.57;0.20;;;;;;;;;;5075286;28;20573;-91
2023/01/04 13:12:54;;;;;;;0.40;0.20;;;;;;;;;;5077515;28;20420;-93
2023/01/04 13:15:42;;;;;;;0.57;0.20;;;;;;;;;;5085867;28;20400;-95
2023/01/04 13:18:27;;;;;;;0.40;0.20;;;;;;;;;;5080610;28;20404;-94
2023/01/04 13:20:54;;;;;;;0.43;0.20;;;;;;;;;;5087079;28;20424;-85
2023/01/04 13:23:20;;;;;;;0.70;0.20;;;;;;;;;;5077339;28;20457;-89
2023/01/04 13:25:46;;;;;;;0.50;0.10;;;;;;;;;;5074177;28;20857;-86
2023/01/04 13:28:16;;;;;;;0.30;0.20;;;;;;;;;;5074245;28;20914;-89
2023/01/04 13:30:42;;;;;;;1.00;0.20;;;;;;;;;;5074740;28;20514;-82
2023/01/04 13:33:19;;;;;;;0.30;0.20;;;;;;;;;;5074295;28;20408;-85
2023/01/04 13:35:57;;;;;;;0.93;0.30;;;;;;;;;;5073145;28;20421;-90
2023/01/04 13:38:23;;;;;;;0.50;0.20;;;;;;;;;;5074036;28;20494;-88
2023/01/04 13:40:49;;;;;;;1.27;0.33;;;;;;;;;;5073911;28;20415;-84
2023/01/04 13:43:14;;;;;;;1.33;0.20;;;;;;;;;;5073878;28;20403;-83
2023/01/04 13:45:43;;;;;;;0.60;0.20;;;;;;;;;;5073927;28;20640;-84
2023/01/04 13:48:12;;;;;;;0.40;0.20;;;;;;;;;;5072164;28;20177;-89
2023/01/04 13:50:48;;;;;;;0.70;0.20;;;;;;;;;;5073911;28;20588;-87
2023/01/04 13:53:19;;;;;;;1.27;0.10;;;;;;;;;;5072693;28;20425;-84
2023/01/04 13:55:48;;;;;;;0.53;0.20;;;;;;;;;;5073785;28;20930;-90
2023/01/04 13:58:31;;;;;;;0.50;0.20;;;;;;;;;;5074472;28;20412;-91
2023/01/04 14:01:12;;;;;;;1.13;0.20;;;;;;;;;;5075748;28;20417;-90
2023/01/04 14:03:43;;;;;;;5.77;0.30;;;;;;;;;;5076751;28;20951;-88
2023/01/04 14:06:08;;;;;;;0.90;0.27;;;;;;;;;;5078931;28;20420;-84
2023/01/04 14:08:36;;;;;;;2.20;0.23;;;;;;;;;;5076021;28;20498;-92
2023/01/04 14:11:57;;;;;;;1.63;0.37;;;;;;;;;;5077314;28;20217;-88
2023/01/04 14:14:01;;;;;;;0.70;0.20;;;;;;;;;;5076386;28;20446;-84
2023/01/04 14:16:27;;;;;;;1.03;0.47;;;;;;;;;;5078335;28;20417;-85
2023/01/04 14:18:53;;;;;;;1.30;0.30;;;;;;;;;;5076784;28;20404;-89
2023/01/04 14:21:32;;;;;;;0.80;0.37;;;;;;;;;;5082371;28;20519;-85
2023/01/04 14:23:58;;;;;;;1.30;0.40;;;;;;;;;;5089347;28;20409;-84
2023/01/04 14:26:28;;;;;;;0.40;0.20;;;;;;;;;;5092461;28;20408;-84
2023/01/04 14:28:54;;;;;;;1.77;0.50;;;;;;;;;;5107519;28;20462;-86
2023/01/04 14:31:21;;;;;;;1.03;0.50;;;;;;;;;;5089151;28;20501;-84
2023/01/04 14:33:49;;;;;;;1.00;0.40;;;;;;;;;;5091456;28;20404;-84
2023/01/04 14:36:18;;;;;;;4.43;0.30;;;;;;;;;;5091948;28;20442;-91
2023/01/04 14:38:44;;;;;;;2.17;0.30;;;;;;;;;;5091162;28;20424;-84
2023/01/04 14:41:19;;;;;;;2.40;0.73;;;;;;;;;;5091156;28;20420;-83
2023/01/04 14:43:55;;;;;;;1.23;0.20;;;;;;;;;;5089465;28;20421;-84
2023/01/04 14:46:22;;;;;;;2.73;0.20;;;;;;;;;;5084172;28;20429;-85
2023/01/04 14:48:48;;;;;;;4.90;0.40;;;;;;;;;;5091974;28;20482;-85
2023/01/04 14:51:16;;;;;;;2.57;0.33;;;;;;;;;;5093557;28;20401;-88
2023/01/04 14:53:42;;;;;;;1.43;0.20;;;;;;;;;;5085677;28;20418;-94
2023/01/04 14:56:15;;;;;;;1.93;0.43;;;;;;;;;;5078208;28;20485;-84
2023/01/04 14:58:41;;;;;;;1.40;0.90;;;;;;;;;;5077193;28;20439;-87
2023/01/04 15:01:08;;;;;;;1.27;0.30;;;;;;;;;;5081895;28;20471;-96
2023/01/04 15:03:34;;;;;;;1.70;0.20;;;;;;;;;;5081942;28;20505;-92
2023/01/04 15:06:00;;;;;;;0.80;0.20;;;;;;;;;;5081716;28;20414;-88
2023/01/04 15:08:26;;;;;;;1.90;0.30;;;;;;;;;;5082762;28;20455;-89
2023/01/04 15:10:51;;;;;;;2.60;0.20;;;;;;;;;;5083357;28;20211;-87
2023/01/04 15:13:20;;;;;;;3.17;0.30;;;;;;;;;;5085897;28;20416;-88
2023/01/04 15:15:46;;;;;;;2.90;0.30;;;;;;;;;;5082825;28;20421;-85
2023/01/04 15:18:12;;;;;;;2.50;0.57;;;;;;;;;;5082867;28;20784;-85
2023/01/04 15:20:39;;;;;;;8.83;0.40;;;;;;;;;;5086718;28;20454;-87
2023/01/04 15:23:05;;;;;;;4.40;0.20;;;;;;;;;;5083122;28;20501;-84
2023/01/04 15:25:31;;;;;;;3.00;0.30;;;;;;;;;;5082762;28;20416;-85
2023/01/04 15:27:57;;;;;;;2.97;0.30;;;;;;;;;;5088433;28;20479;-84
2023/01/04 15:30:23;;;;;;;2.43;1.27;;;;;;;;;;5091042;28;20494;-88
2023/01/04 15:32:49;;;;;;;6.10;0.93;;;;;;;;;;5098652;28;20410;-89
2023/01/04 15:35:16;;;;;;;1.50;0.40;;;;;;;;;;5101662;28;20411;-90
2023/01/04 15:37:44;;;;;;;1.40;0.20;;;;;;;;;;5098007;28;20412;-91
2023/01/04 15:40:10;;;;;;;5.60;0.53;;;;;;;;;;5097295;28;20417;-84
2023/01/04 15:45:22;;;;;;;2.27;0.50;;;;;;;;;;5098139;28;20442;-85
2023/01/04 15:47:51;;;;;;;4.47;0.77;;;;;;;;;;5096480;28;20767;-87
2023/01/04 15:50:19;;;;;;;3.07;0.30;;;;;;;;;;5097438;28;20499;-86